sensor_id;sensor_type;location;lat;lon;timestamp;P1;durP1;ratioP1;P2;durP2;ratioP2
7485;SDS011;3784;54.098;9.998;2023-05-07T00:00:45;74.00;;;69.77;;
7485;SDS011;3784;54.098;9.998;2023-05-07T00:03:12;59.07;;;55.40;;
7485;SDS011;3784;54.098;9.998;2023-05-07T00:05:40;67.63;;;63.80;;
7485;SDS011;3784;54.098;9.998;2023-05-07T00:08:07;59.30;;;55.40;;
7485;SDS011;3784;54.098;9.998;2023-05-07T00:10:34;42.00;;;38.83;;
7485;SDS011;3784;54.098;9.998;2023-05-07T00:13:00;46.67;;;43.70;;
7485;SDS011;3784;54.098;9.998;2023-05-07T00:15:27;39.27;;;36.53;;
7485;SDS011;3784;54.098;9.998;2023-05-07T00:17:53;33.20;;;31.00;;
7485;SDS011;3784;54.098;9.998;2023-05-07T00:20:20;36.50;;;34.10;;
7485;SDS011;3784;54.098;9.998;2023-05-07T00:22:46;32.70;;;30.20;;
7485;SDS011;3784;54.098;9.998;2023-05-07T00:25:13;28.80;;;26.57;;
7485;SDS011;3784;54.098;9.998;2023-05-07T00:27:39;31.77;;;29.37;;
7485;SDS011;3784;54.098;9.998;2023-05-07T00:30:06;27.67;;;25.57;;
7485;SDS011;3784;54.098;9.998;2023-05-07T00:32:34;25.37;;;23.47;;
7485;SDS011;3784;54.098;9.998;2023-05-07T00:35:01;26.57;;;24.77;;
7485;SDS011;3784;54.098;9.998;2023-05-07T00:37:27;26.37;;;24.43;;
7485;SDS011;3784;54.098;9.998;2023-05-07T00:39:54;27.20;;;24.90;;
7485;SDS011;3784;54.098;9.998;2023-05-07T00:42:22;24.93;;;22.97;;
7485;SDS011;3784;54.098;9.998;2023-05-07T00:44:48;24.70;;;22.80;;
7485;SDS011;3784;54.098;9.998;2023-05-07T00:47:15;25.50;;;23.50;;
7485;SDS011;3784;54.098;9.998;2023-05-07T00:49:42;26.53;;;24.23;;
7485;SDS011;3784;54.098;9.998;2023-05-07T00:52:11;29.63;;;27.23;;
7485;SDS011;3784;54.098;9.998;2023-05-07T00:54:40;26.63;;;24.77;;
7485;SDS011;3784;54.098;9.998;2023-05-07T00:57:07;26.93;;;24.83;;
7485;SDS011;3784;54.098;9.998;2023-05-07T00:59:35;26.47;;;24.47;;
7485;SDS011;3784;54.098;9.998;2023-05-07T01:02:02;29.13;;;26.87;;
7485;SDS011;3784;54.098;9.998;2023-05-07T01:04:29;31.10;;;28.90;;
7485;SDS011;3784;54.098;9.998;2023-05-07T01:06:57;30.77;;;28.67;;
7485;SDS011;3784;54.098;9.998;2023-05-07T01:09:25;29.90;;;27.90;;
7485;SDS011;3784;54.098;9.998;2023-05-07T01:11:52;31.30;;;29.07;;
7485;SDS011;3784;54.098;9.998;2023-05-07T01:14:19;35.60;;;33.30;;
7485;SDS011;3784;54.098;9.998;2023-05-07T01:16:47;34.53;;;32.20;;
7485;SDS011;3784;54.098;9.998;2023-05-07T01:19:15;37.77;;;35.07;;
7485;SDS011;3784;54.098;9.998;2023-05-07T01:21:48;34.03;;;31.87;;
7485;SDS011;3784;54.098;9.998;2023-05-07T01:24:15;46.23;;;43.23;;
7485;SDS011;3784;54.098;9.998;2023-05-07T01:26:44;37.67;;;35.27;;
7485;SDS011;3784;54.098;9.998;2023-05-07T01:29:11;48.13;;;45.23;;
7485;SDS011;3784;54.098;9.998;2023-05-07T01:31:39;38.70;;;36.10;;
7485;SDS011;3784;54.098;9.998;2023-05-07T01:34:07;49.27;;;46.17;;
7485;SDS011;3784;54.098;9.998;2023-05-07T01:36:35;59.20;;;55.80;;
7485;SDS011;3784;54.098;9.998;2023-05-07T01:39:04;50.90;;;47.97;;
7485;SDS011;3784;54.098;9.998;2023-05-07T01:41:33;61.17;;;57.80;;
7485;SDS011;3784;54.098;9.998;2023-05-07T01:44:00;78.93;;;74.90;;
7485;SDS011;3784;54.098;9.998;2023-05-07T01:46:26;80.50;;;76.50;;
7485;SDS011;3784;54.098;9.998;2023-05-07T01:48:54;65.80;;;62.27;;
7485;SDS011;3784;54.098;9.998;2023-05-07T01:51:20;71.27;;;67.60;;
7485;SDS011;3784;54.098;9.998;2023-05-07T01:53:48;119.97;;;114.50;;
7485;SDS011;3784;54.098;9.998;2023-05-07T01:56:17;99.77;;;94.90;;
7485;SDS011;3784;54.098;9.998;2023-05-07T01:58:47;124.57;;;118.97;;
7485;SDS011;3784;54.098;9.998;2023-05-07T02:01:14;129.60;;;123.60;;
7485;SDS011;3784;54.098;9.998;2023-05-07T02:03:41;120.83;;;115.40;;
7485;SDS011;3784;54.098;9.998;2023-05-07T02:06:08;108.17;;;103.20;;
7485;SDS011;3784;54.098;9.998;2023-05-07T02:08:34;115.93;;;110.63;;
7485;SDS011;3784;54.098;9.998;2023-05-07T02:11:01;106.77;;;101.70;;
7485;SDS011;3784;54.098;9.998;2023-05-07T02:13:29;105.17;;;100.40;;
7485;SDS011;3784;54.098;9.998;2023-05-07T02:15:56;101.73;;;96.90;;
7485;SDS011;3784;54.098;9.998;2023-05-07T02:18:23;92.40;;;87.87;;
7485;SDS011;3784;54.098;9.998;2023-05-07T02:20:49;101.00;;;96.23;;
7485;SDS011;3784;54.098;9.998;2023-05-07T02:23:16;94.03;;;89.17;;
7485;SDS011;3784;54.098;9.998;2023-05-07T02:25:43;100.07;;;95.37;;
7485;SDS011;3784;54.098;9.998;2023-05-07T02:28:10;105.93;;;100.77;;
7485;SDS011;3784;54.098;9.998;2023-05-07T02:30:36;108.23;;;103.10;;
7485;SDS011;3784;54.098;9.998;2023-05-07T02:33:04;119.63;;;114.13;;
7485;SDS011;3784;54.098;9.998;2023-05-07T02:35:30;127.57;;;121.80;;
7485;SDS011;3784;54.098;9.998;2023-05-07T02:37:57;134.97;;;128.93;;
7485;SDS011;3784;54.098;9.998;2023-05-07T02:40:23;153.47;;;146.57;;
7485;SDS011;3784;54.098;9.998;2023-05-07T02:42:50;130.00;;;124.03;;
7485;SDS011;3784;54.098;9.998;2023-05-07T02:45:17;158.53;;;151.20;;
7485;SDS011;3784;54.098;9.998;2023-05-07T02:47:44;132.20;;;126.13;;
7485;SDS011;3784;54.098;9.998;2023-05-07T02:50:10;129.90;;;123.90;;
7485;SDS011;3784;54.098;9.998;2023-05-07T02:52:37;141.07;;;134.73;;
7485;SDS011;3784;54.098;9.998;2023-05-07T02:55:04;117.33;;;112.00;;
7485;SDS011;3784;54.098;9.998;2023-05-07T02:57:31;126.07;;;120.37;;
7485;SDS011;3784;54.098;9.998;2023-05-07T02:59:58;117.97;;;112.60;;
7485;SDS011;3784;54.098;9.998;2023-05-07T03:02:24;132.17;;;126.20;;
7485;SDS011;3784;54.098;9.998;2023-05-07T03:04:51;129.27;;;123.30;;
7485;SDS011;3784;54.098;9.998;2023-05-07T03:07:17;141.33;;;135.00;;
7485;SDS011;3784;54.098;9.998;2023-05-07T03:09:44;128.47;;;122.53;;
7485;SDS011;3784;54.098;9.998;2023-05-07T03:12:11;137.17;;;130.90;;
7485;SDS011;3784;54.098;9.998;2023-05-07T03:14:37;139.57;;;132.97;;
7485;SDS011;3784;54.098;9.998;2023-05-07T03:17:04;151.97;;;145.07;;
7485;SDS011;3784;54.098;9.998;2023-05-07T03:19:31;157.40;;;150.30;;
7485;SDS011;3784;54.098;9.998;2023-05-07T03:21:57;156.13;;;149.10;;
7485;SDS011;3784;54.098;9.998;2023-05-07T03:24:24;158.27;;;151.37;;
7485;SDS011;3784;54.098;9.998;2023-05-07T03:26:50;149.87;;;143.20;;
7485;SDS011;3784;54.098;9.998;2023-05-07T03:29:17;172.20;;;164.70;;
7485;SDS011;3784;54.098;9.998;2023-05-07T03:31:43;156.93;;;149.93;;
7485;SDS011;3784;54.098;9.998;2023-05-07T03:34:10;166.57;;;159.00;;
7485;SDS011;3784;54.098;9.998;2023-05-07T03:36:36;165.00;;;157.43;;
7485;SDS011;3784;54.098;9.998;2023-05-07T03:39:03;154.87;;;147.87;;
7485;SDS011;3784;54.098;9.998;2023-05-07T03:41:30;154.17;;;147.13;;
7485;SDS011;3784;54.098;9.998;2023-05-07T03:43:56;154.07;;;147.20;;
7485;SDS011;3784;54.098;9.998;2023-05-07T03:46:22;170.00;;;162.40;;
7485;SDS011;3784;54.098;9.998;2023-05-07T03:48:52;183.37;;;175.50;;
7485;SDS011;3784;54.098;9.998;2023-05-07T03:51:18;166.03;;;158.73;;
7485;SDS011;3784;54.098;9.998;2023-05-07T03:53:45;177.00;;;169.43;;
7485;SDS011;3784;54.098;9.998;2023-05-07T03:56:11;169.40;;;162.07;;
7485;SDS011;3784;54.098;9.998;2023-05-07T03:58:38;178.10;;;170.40;;
7485;SDS011;3784;54.098;9.998;2023-05-07T04:01:04;178.80;;;170.77;;
7485;SDS011;3784;54.098;9.998;2023-05-07T04:03:31;173.00;;;165.57;;
7485;SDS011;3784;54.098;9.998;2023-05-07T04:05:57;175.07;;;167.43;;
7485;SDS011;3784;54.098;9.998;2023-05-07T04:08:24;174.67;;;167.13;;
7485;SDS011;3784;54.098;9.998;2023-05-07T04:10:54;174.03;;;166.53;;
7485;SDS011;3784;54.098;9.998;2023-05-07T04:13:24;177.60;;;169.87;;
7485;SDS011;3784;54.098;9.998;2023-05-07T04:15:51;177.30;;;169.50;;
7485;SDS011;3784;54.098;9.998;2023-05-07T04:18:21;182.67;;;174.80;;
7485;SDS011;3784;54.098;9.998;2023-05-07T04:20:48;180.93;;;173.00;;
7485;SDS011;3784;54.098;9.998;2023-05-07T04:23:16;173.63;;;165.90;;
7485;SDS011;3784;54.098;9.998;2023-05-07T04:25:42;178.60;;;170.90;;
7485;SDS011;3784;54.098;9.998;2023-05-07T04:28:09;180.60;;;172.90;;
7485;SDS011;3784;54.098;9.998;2023-05-07T04:30:35;190.23;;;182.13;;
7485;SDS011;3784;54.098;9.998;2023-05-07T04:33:02;193.90;;;185.60;;
7485;SDS011;3784;54.098;9.998;2023-05-07T04:35:28;185.40;;;177.53;;
7485;SDS011;3784;54.098;9.998;2023-05-07T04:37:55;196.27;;;187.93;;
7485;SDS011;3784;54.098;9.998;2023-05-07T04:40:21;186.00;;;178.07;;
7485;SDS011;3784;54.098;9.998;2023-05-07T04:42:48;174.57;;;167.07;;
7485;SDS011;3784;54.098;9.998;2023-05-07T04:45:14;182.60;;;174.80;;
7485;SDS011;3784;54.098;9.998;2023-05-07T04:47:41;202.47;;;193.80;;
7485;SDS011;3784;54.098;9.998;2023-05-07T04:50:08;192.63;;;184.47;;
7485;SDS011;3784;54.098;9.998;2023-05-07T04:52:35;196.97;;;188.67;;
7485;SDS011;3784;54.098;9.998;2023-05-07T04:55:01;201.90;;;193.33;;
7485;SDS011;3784;54.098;9.998;2023-05-07T04:57:28;197.93;;;189.40;;
7485;SDS011;3784;54.098;9.998;2023-05-07T04:59:55;197.27;;;188.90;;
7485;SDS011;3784;54.098;9.998;2023-05-07T05:02:21;203.13;;;194.43;;
7485;SDS011;3784;54.098;9.998;2023-05-07T05:04:48;200.67;;;192.13;;
7485;SDS011;3784;54.098;9.998;2023-05-07T05:07:14;193.30;;;184.87;;
7485;SDS011;3784;54.098;9.998;2023-05-07T05:09:40;194.70;;;186.03;;
7485;SDS011;3784;54.098;9.998;2023-05-07T05:12:07;194.27;;;185.97;;
7485;SDS011;3784;54.098;9.998;2023-05-07T05:14:35;188.37;;;180.37;;
7485;SDS011;3784;54.098;9.998;2023-05-07T05:17:02;203.83;;;195.30;;
7485;SDS011;3784;54.098;9.998;2023-05-07T05:19:28;187.57;;;179.60;;
7485;SDS011;3784;54.098;9.998;2023-05-07T05:21:55;202.77;;;194.23;;
7485;SDS011;3784;54.098;9.998;2023-05-07T05:24:21;201.70;;;193.17;;
7485;SDS011;3784;54.098;9.998;2023-05-07T05:26:48;195.87;;;187.57;;
7485;SDS011;3784;54.098;9.998;2023-05-07T05:29:14;189.67;;;181.60;;
7485;SDS011;3784;54.098;9.998;2023-05-07T05:31:41;194.03;;;185.60;;
7485;SDS011;3784;54.098;9.998;2023-05-07T05:34:08;193.40;;;185.03;;
7485;SDS011;3784;54.098;9.998;2023-05-07T05:36:34;203.87;;;195.17;;
7485;SDS011;3784;54.098;9.998;2023-05-07T05:39:00;194.00;;;185.70;;
7485;SDS011;3784;54.098;9.998;2023-05-07T05:41:27;199.60;;;191.07;;
7485;SDS011;3784;54.098;9.998;2023-05-07T05:43:53;187.07;;;178.97;;
7485;SDS011;3784;54.098;9.998;2023-05-07T05:46:20;193.10;;;184.83;;
7485;SDS011;3784;54.098;9.998;2023-05-07T05:48:46;197.03;;;188.67;;
7485;SDS011;3784;54.098;9.998;2023-05-07T05:51:13;195.83;;;187.47;;
7485;SDS011;3784;54.098;9.998;2023-05-07T05:53:39;194.10;;;185.73;;
7485;SDS011;3784;54.098;9.998;2023-05-07T05:56:06;188.03;;;179.93;;
7485;SDS011;3784;54.098;9.998;2023-05-07T05:58:33;202.23;;;192.83;;
7485;SDS011;3784;54.098;9.998;2023-05-07T06:00:59;193.83;;;185.50;;
7485;SDS011;3784;54.098;9.998;2023-05-07T06:03:26;208.10;;;199.37;;
7485;SDS011;3784;54.098;9.998;2023-05-07T06:05:52;193.07;;;184.87;;
7485;SDS011;3784;54.098;9.998;2023-05-07T06:08:19;199.80;;;191.33;;
7485;SDS011;3784;54.098;9.998;2023-05-07T06:10:45;200.70;;;192.20;;
7485;SDS011;3784;54.098;9.998;2023-05-07T06:13:12;189.63;;;181.40;;
7485;SDS011;3784;54.098;9.998;2023-05-07T06:15:39;190.33;;;182.20;;
7485;SDS011;3784;54.098;9.998;2023-05-07T06:18:05;190.33;;;182.23;;
7485;SDS011;3784;54.098;9.998;2023-05-07T06:20:32;192.87;;;184.70;;
7485;SDS011;3784;54.098;9.998;2023-05-07T06:22:58;184.17;;;176.40;;
7485;SDS011;3784;54.098;9.998;2023-05-07T06:25:25;192.50;;;184.30;;
7485;SDS011;3784;54.098;9.998;2023-05-07T06:27:51;193.50;;;185.33;;
7485;SDS011;3784;54.098;9.998;2023-05-07T06:30:18;203.60;;;195.10;;
7485;SDS011;3784;54.098;9.998;2023-05-07T06:32:44;188.23;;;180.27;;
7485;SDS011;3784;54.098;9.998;2023-05-07T06:35:11;196.87;;;188.47;;
7485;SDS011;3784;54.098;9.998;2023-05-07T06:37:38;199.60;;;191.17;;
7485;SDS011;3784;54.098;9.998;2023-05-07T06:40:05;197.80;;;189.40;;
7485;SDS011;3784;54.098;9.998;2023-05-07T06:42:33;202.53;;;194.03;;
7485;SDS011;3784;54.098;9.998;2023-05-07T06:45:00;194.87;;;186.53;;
7485;SDS011;3784;54.098;9.998;2023-05-07T06:47:27;194.87;;;186.63;;
7485;SDS011;3784;54.098;9.998;2023-05-07T06:49:53;194.90;;;186.47;;
7485;SDS011;3784;54.098;9.998;2023-05-07T06:52:20;198.33;;;190.03;;
7485;SDS011;3784;54.098;9.998;2023-05-07T06:54:46;186.43;;;178.50;;
7485;SDS011;3784;54.098;9.998;2023-05-07T06:57:13;197.73;;;189.33;;
7485;SDS011;3784;54.098;9.998;2023-05-07T06:59:39;188.03;;;180.03;;
7485;SDS011;3784;54.098;9.998;2023-05-07T07:02:06;200.97;;;192.47;;
7485;SDS011;3784;54.098;9.998;2023-05-07T07:04:32;196.30;;;188.00;;
7485;SDS011;3784;54.098;9.998;2023-05-07T07:06:59;192.70;;;184.63;;
7485;SDS011;3784;54.098;9.998;2023-05-07T07:09:25;187.20;;;179.33;;
7485;SDS011;3784;54.098;9.998;2023-05-07T07:11:52;192.57;;;184.47;;
7485;SDS011;3784;54.098;9.998;2023-05-07T07:14:18;187.53;;;179.43;;
7485;SDS011;3784;54.098;9.998;2023-05-07T07:16:45;185.43;;;177.70;;
7485;SDS011;3784;54.098;9.998;2023-05-07T07:19:13;197.70;;;189.50;;
7485;SDS011;3784;54.098;9.998;2023-05-07T07:21:41;186.30;;;178.37;;
7485;SDS011;3784;54.098;9.998;2023-05-07T07:24:08;182.03;;;174.37;;
7485;SDS011;3784;54.098;9.998;2023-05-07T07:26:34;182.80;;;175.17;;
7485;SDS011;3784;54.098;9.998;2023-05-07T07:29:01;174.03;;;166.67;;
7485;SDS011;3784;54.098;9.998;2023-05-07T07:31:27;179.83;;;172.33;;
7485;SDS011;3784;54.098;9.998;2023-05-07T07:33:54;182.07;;;174.13;;
7485;SDS011;3784;54.098;9.998;2023-05-07T07:36:21;166.03;;;159.07;;
7485;SDS011;3784;54.098;9.998;2023-05-07T07:38:53;168.57;;;161.23;;
7485;SDS011;3784;54.098;9.998;2023-05-07T07:41:20;163.40;;;156.60;;
7485;SDS011;3784;54.098;9.998;2023-05-07T07:43:46;148.97;;;142.60;;
7485;SDS011;3784;54.098;9.998;2023-05-07T07:46:15;167.07;;;160.13;;
7485;SDS011;3784;54.098;9.998;2023-05-07T07:48:41;151.80;;;145.20;;
7485;SDS011;3784;54.098;9.998;2023-05-07T07:51:08;154.57;;;148.03;;
7485;SDS011;3784;54.098;9.998;2023-05-07T07:53:34;143.17;;;137.03;;
7485;SDS011;3784;54.098;9.998;2023-05-07T07:56:01;157.70;;;150.97;;
7485;SDS011;3784;54.098;9.998;2023-05-07T07:58:30;159.47;;;152.63;;
7485;SDS011;3784;54.098;9.998;2023-05-07T08:00:57;137.67;;;131.87;;
7485;SDS011;3784;54.098;9.998;2023-05-07T08:03:24;145.67;;;139.50;;
7485;SDS011;3784;54.098;9.998;2023-05-07T08:05:50;141.17;;;135.17;;
7485;SDS011;3784;54.098;9.998;2023-05-07T08:08:17;147.73;;;141.53;;
7485;SDS011;3784;54.098;9.998;2023-05-07T08:10:43;148.70;;;142.33;;
7485;SDS011;3784;54.098;9.998;2023-05-07T08:13:10;143.00;;;136.97;;
7485;SDS011;3784;54.098;9.998;2023-05-07T08:15:37;143.27;;;137.17;;
7485;SDS011;3784;54.098;9.998;2023-05-07T08:18:03;137.03;;;131.23;;
7485;SDS011;3784;54.098;9.998;2023-05-07T08:20:30;139.13;;;133.33;;
7485;SDS011;3784;54.098;9.998;2023-05-07T08:22:57;142.67;;;136.67;;
7485;SDS011;3784;54.098;9.998;2023-05-07T08:25:23;140.00;;;133.97;;
7485;SDS011;3784;54.098;9.998;2023-05-07T08:27:50;138.53;;;132.63;;
7485;SDS011;3784;54.098;9.998;2023-05-07T08:30:16;140.17;;;134.27;;
7485;SDS011;3784;54.098;9.998;2023-05-07T08:32:43;139.87;;;133.77;;
7485;SDS011;3784;54.098;9.998;2023-05-07T08:35:09;129.63;;;123.93;;
7485;SDS011;3784;54.098;9.998;2023-05-07T08:37:36;137.70;;;131.80;;
7485;SDS011;3784;54.098;9.998;2023-05-07T08:40:03;134.37;;;128.67;;
7485;SDS011;3784;54.098;9.998;2023-05-07T08:42:35;123.53;;;118.30;;
7485;SDS011;3784;54.098;9.998;2023-05-07T08:45:03;118.47;;;113.50;;
7485;SDS011;3784;54.098;9.998;2023-05-07T08:47:37;132.00;;;126.47;;
7485;SDS011;3784;54.098;9.998;2023-05-07T08:50:14;119.60;;;114.50;;
7485;SDS011;3784;54.098;9.998;2023-05-07T08:52:40;120.07;;;114.97;;
7485;SDS011;3784;54.098;9.998;2023-05-07T08:55:07;124.07;;;118.80;;
7485;SDS011;3784;54.098;9.998;2023-05-07T08:57:35;111.30;;;106.60;;
7485;SDS011;3784;54.098;9.998;2023-05-07T09:02:47;119.80;;;114.70;;
7485;SDS011;3784;54.098;9.998;2023-05-07T09:05:14;112.93;;;108.23;;
7485;SDS011;3784;54.098;9.998;2023-05-07T09:07:40;124.97;;;119.67;;
7485;SDS011;3784;54.098;9.998;2023-05-07T09:10:07;114.63;;;109.87;;
7485;SDS011;3784;54.098;9.998;2023-05-07T09:12:34;111.57;;;106.83;;
7485;SDS011;3784;54.098;9.998;2023-05-07T09:15:02;111.90;;;107.23;;
7485;SDS011;3784;54.098;9.998;2023-05-07T09:17:29;117.73;;;112.73;;
7485;SDS011;3784;54.098;9.998;2023-05-07T09:19:55;107.53;;;102.77;;
7485;SDS011;3784;54.098;9.998;2023-05-07T09:22:22;109.57;;;104.90;;
7485;SDS011;3784;54.098;9.998;2023-05-07T09:24:49;105.70;;;101.20;;
7485;SDS011;3784;54.098;9.998;2023-05-07T09:27:17;108.20;;;103.60;;
7485;SDS011;3784;54.098;9.998;2023-05-07T09:29:44;105.10;;;100.70;;
7485;SDS011;3784;54.098;9.998;2023-05-07T09:32:11;112.40;;;107.73;;
7485;SDS011;3784;54.098;9.998;2023-05-07T09:34:37;104.77;;;100.33;;
7485;SDS011;3784;54.098;9.998;2023-05-07T09:37:04;117.07;;;112.03;;
7485;SDS011;3784;54.098;9.998;2023-05-07T09:39:38;116.57;;;111.63;;
7485;SDS011;3784;54.098;9.998;2023-05-07T09:42:06;102.80;;;98.50;;
7485;SDS011;3784;54.098;9.998;2023-05-07T09:44:33;99.63;;;95.37;;
7485;SDS011;3784;54.098;9.998;2023-05-07T09:47:00;103.60;;;99.20;;
7485;SDS011;3784;54.098;9.998;2023-05-07T09:49:28;94.50;;;90.50;;
7485;SDS011;3784;54.098;9.998;2023-05-07T09:51:58;100.07;;;95.77;;
7485;SDS011;3784;54.098;9.998;2023-05-07T09:54:26;88.67;;;84.93;;
7485;SDS011;3784;54.098;9.998;2023-05-07T09:56:57;113.00;;;108.23;;
7485;SDS011;3784;54.098;9.998;2023-05-07T09:59:24;95.70;;;91.50;;
7485;SDS011;3784;54.098;9.998;2023-05-07T10:01:56;94.03;;;89.83;;
7485;SDS011;3784;54.098;9.998;2023-05-07T10:04:27;92.03;;;88.07;;
7485;SDS011;3784;54.098;9.998;2023-05-07T10:06:54;92.27;;;88.30;;
7485;SDS011;3784;54.098;9.998;2023-05-07T10:09:21;94.50;;;90.43;;
7485;SDS011;3784;54.098;9.998;2023-05-07T10:11:49;94.80;;;90.77;;
7485;SDS011;3784;54.098;9.998;2023-05-07T10:14:16;95.40;;;91.30;;
7485;SDS011;3784;54.098;9.998;2023-05-07T10:16:43;90.90;;;86.93;;
7485;SDS011;3784;54.098;9.998;2023-05-07T10:19:10;92.87;;;88.87;;
7485;SDS011;3784;54.098;9.998;2023-05-07T10:21:38;95.87;;;91.80;;
7485;SDS011;3784;54.098;9.998;2023-05-07T10:24:20;94.20;;;90.20;;
7485;SDS011;3784;54.098;9.998;2023-05-07T10:26:56;90.33;;;86.43;;
7485;SDS011;3784;54.098;9.998;2023-05-07T10:29:31;94.57;;;90.27;;
7485;SDS011;3784;54.098;9.998;2023-05-07T10:34:39;88.27;;;84.47;;
7485;SDS011;3784;54.098;9.998;2023-05-07T10:37:08;87.10;;;83.40;;
7485;SDS011;3784;54.098;9.998;2023-05-07T10:39:36;99.00;;;94.73;;
7485;SDS011;3784;54.098;9.998;2023-05-07T10:42:09;90.20;;;86.40;;
7485;SDS011;3784;54.098;9.998;2023-05-07T10:44:37;89.20;;;85.40;;
7485;SDS011;3784;54.098;9.998;2023-05-07T10:47:13;87.23;;;83.53;;
7485;SDS011;3784;54.098;9.998;2023-05-07T10:52:16;81.33;;;77.83;;
7485;SDS011;3784;54.098;9.998;2023-05-07T10:54:44;85.80;;;82.10;;
7485;SDS011;3784;54.098;9.998;2023-05-07T11:00:03;86.70;;;82.97;;
7485;SDS011;3784;54.098;9.998;2023-05-07T11:05:32;81.37;;;77.97;;
7485;SDS011;3784;54.098;9.998;2023-05-07T11:08:03;92.83;;;88.80;;
7485;SDS011;3784;54.098;9.998;2023-05-07T11:10:50;81.40;;;77.87;;
7485;SDS011;3784;54.098;9.998;2023-05-07T11:13:18;79.13;;;75.73;;
7485;SDS011;3784;54.098;9.998;2023-05-07T11:16:15;85.50;;;81.90;;
7485;SDS011;3784;54.098;9.998;2023-05-07T11:18:47;81.63;;;78.17;;
7485;SDS011;3784;54.098;9.998;2023-05-07T11:24:08;89.03;;;85.23;;
7485;SDS011;3784;54.098;9.998;2023-05-07T11:26:42;93.13;;;89.30;;
7485;SDS011;3784;54.098;9.998;2023-05-07T11:29:13;84.53;;;80.70;;
7485;SDS011;3784;54.098;9.998;2023-05-07T11:31:50;91.83;;;88.00;;
7485;SDS011;3784;54.098;9.998;2023-05-07T11:34:22;89.70;;;85.87;;
7485;SDS011;3784;54.098;9.998;2023-05-07T11:36:49;84.33;;;80.83;;
7485;SDS011;3784;54.098;9.998;2023-05-07T11:39:32;74.27;;;70.93;;
7485;SDS011;3784;54.098;9.998;2023-05-07T11:41:59;78.57;;;75.13;;
7485;SDS011;3784;54.098;9.998;2023-05-07T11:44:39;77.17;;;73.80;;
7485;SDS011;3784;54.098;9.998;2023-05-07T11:47:07;78.17;;;74.83;;
7485;SDS011;3784;54.098;9.998;2023-05-07T11:49:34;86.57;;;82.97;;
7485;SDS011;3784;54.098;9.998;2023-05-07T11:52:00;80.13;;;76.80;;
7485;SDS011;3784;54.098;9.998;2023-05-07T11:54:34;78.30;;;74.93;;
7485;SDS011;3784;54.098;9.998;2023-05-07T11:57:01;78.80;;;75.30;;
7485;SDS011;3784;54.098;9.998;2023-05-07T11:59:28;80.57;;;77.13;;
7485;SDS011;3784;54.098;9.998;2023-05-07T12:01:57;82.57;;;79.07;;
7485;SDS011;3784;54.098;9.998;2023-05-07T12:04:25;90.13;;;86.30;;
7485;SDS011;3784;54.098;9.998;2023-05-07T12:06:55;84.57;;;80.97;;
7485;SDS011;3784;54.098;9.998;2023-05-07T12:09:22;89.17;;;85.33;;
7485;SDS011;3784;54.098;9.998;2023-05-07T12:11:48;91.30;;;87.47;;
7485;SDS011;3784;54.098;9.998;2023-05-07T12:14:15;95.60;;;91.47;;
7485;SDS011;3784;54.098;9.998;2023-05-07T12:16:44;84.63;;;81.03;;
7485;SDS011;3784;54.098;9.998;2023-05-07T12:19:11;90.67;;;86.77;;
7485;SDS011;3784;54.098;9.998;2023-05-07T12:21:41;80.63;;;76.83;;
7485;SDS011;3784;54.098;9.998;2023-05-07T12:24:07;73.83;;;70.53;;
7485;SDS011;3784;54.098;9.998;2023-05-07T12:26:37;80.77;;;77.30;;
7485;SDS011;3784;54.098;9.998;2023-05-07T12:29:04;77.03;;;73.83;;
7485;SDS011;3784;54.098;9.998;2023-05-07T12:31:31;85.57;;;82.00;;
7485;SDS011;3784;54.098;9.998;2023-05-07T12:33:57;84.47;;;80.67;;
7485;SDS011;3784;54.098;9.998;2023-05-07T12:36:24;70.20;;;67.23;;
7485;SDS011;3784;54.098;9.998;2023-05-07T12:38:52;78.57;;;75.17;;
7485;SDS011;3784;54.098;9.998;2023-05-07T12:41:20;67.87;;;64.87;;
7485;SDS011;3784;54.098;9.998;2023-05-07T12:43:51;74.67;;;71.47;;
7485;SDS011;3784;54.098;9.998;2023-05-07T12:46:22;65.23;;;62.33;;
7485;SDS011;3784;54.098;9.998;2023-05-07T12:48:49;63.07;;;60.37;;
7485;SDS011;3784;54.098;9.998;2023-05-07T12:51:16;63.77;;;60.87;;
7485;SDS011;3784;54.098;9.998;2023-05-07T12:53:42;63.40;;;60.60;;
7485;SDS011;3784;54.098;9.998;2023-05-07T12:56:09;74.93;;;71.63;;
7485;SDS011;3784;54.098;9.998;2023-05-07T12:58:36;73.10;;;69.90;;
7485;SDS011;3784;54.098;9.998;2023-05-07T13:01:06;67.00;;;64.10;;
7485;SDS011;3784;54.098;9.998;2023-05-07T13:03:34;63.37;;;60.67;;
7485;SDS011;3784;54.098;9.998;2023-05-07T13:06:08;68.70;;;65.70;;
7485;SDS011;3784;54.098;9.998;2023-05-07T13:08:37;64.97;;;62.17;;
7485;SDS011;3784;54.098;9.998;2023-05-07T13:11:07;60.27;;;57.57;;
7485;SDS011;3784;54.098;9.998;2023-05-07T13:13:36;60.23;;;57.57;;
7485;SDS011;3784;54.098;9.998;2023-05-07T13:16:03;63.13;;;60.27;;
7485;SDS011;3784;54.098;9.998;2023-05-07T13:18:31;63.03;;;60.23;;
7485;SDS011;3784;54.098;9.998;2023-05-07T13:20:59;62.87;;;60.07;;
7485;SDS011;3784;54.098;9.998;2023-05-07T13:23:27;64.77;;;62.00;;
7485;SDS011;3784;54.098;9.998;2023-05-07T13:25:54;58.67;;;56.07;;
7485;SDS011;3784;54.098;9.998;2023-05-07T13:28:22;59.30;;;56.73;;
7485;SDS011;3784;54.098;9.998;2023-05-07T13:30:49;60.27;;;57.67;;
7485;SDS011;3784;54.098;9.998;2023-05-07T13:33:17;65.53;;;62.73;;
7485;SDS011;3784;54.098;9.998;2023-05-07T13:35:44;59.70;;;57.07;;
7485;SDS011;3784;54.098;9.998;2023-05-07T13:38:11;57.90;;;55.40;;
7485;SDS011;3784;54.098;9.998;2023-05-07T13:40:37;58.20;;;55.73;;
7485;SDS011;3784;54.098;9.998;2023-05-07T13:43:05;55.30;;;52.90;;
7485;SDS011;3784;54.098;9.998;2023-05-07T13:45:32;61.53;;;58.83;;
7485;SDS011;3784;54.098;9.998;2023-05-07T13:48:00;55.27;;;52.87;;
7485;SDS011;3784;54.098;9.998;2023-05-07T13:50:27;62.13;;;59.33;;
7485;SDS011;3784;54.098;9.998;2023-05-07T13:52:55;61.40;;;58.70;;
7485;SDS011;3784;54.098;9.998;2023-05-07T13:55:23;56.97;;;54.47;;
7485;SDS011;3784;54.098;9.998;2023-05-07T13:57:56;53.90;;;51.57;;
7485;SDS011;3784;54.098;9.998;2023-05-07T14:00:25;64.33;;;61.63;;
7485;SDS011;3784;54.098;9.998;2023-05-07T14:02:52;67.80;;;64.93;;
7485;SDS011;3784;54.098;9.998;2023-05-07T14:05:19;53.07;;;50.77;;
7485;SDS011;3784;54.098;9.998;2023-05-07T14:07:46;54.90;;;52.40;;
7485;SDS011;3784;54.098;9.998;2023-05-07T14:10:13;55.17;;;52.77;;
7485;SDS011;3784;54.098;9.998;2023-05-07T14:12:40;60.27;;;57.67;;
7485;SDS011;3784;54.098;9.998;2023-05-07T14:15:07;60.20;;;57.60;;
7485;SDS011;3784;54.098;9.998;2023-05-07T14:17:34;63.20;;;60.40;;
7485;SDS011;3784;54.098;9.998;2023-05-07T14:20:01;55.90;;;53.40;;
7485;SDS011;3784;54.098;9.998;2023-05-07T14:22:27;59.43;;;56.93;;
7485;SDS011;3784;54.098;9.998;2023-05-07T14:24:54;62.37;;;59.73;;
7485;SDS011;3784;54.098;9.998;2023-05-07T14:27:32;55.17;;;52.73;;
7485;SDS011;3784;54.098;9.998;2023-05-07T14:29:58;55.03;;;52.73;;
7485;SDS011;3784;54.098;9.998;2023-05-07T14:32:25;55.10;;;52.50;;
7485;SDS011;3784;54.098;9.998;2023-05-07T14:34:53;59.63;;;56.67;;
7485;SDS011;3784;54.098;9.998;2023-05-07T14:37:20;69.73;;;66.67;;
7485;SDS011;3784;54.098;9.998;2023-05-07T14:39:47;56.87;;;54.17;;
7485;SDS011;3784;54.098;9.998;2023-05-07T14:42:16;60.57;;;57.77;;
7485;SDS011;3784;54.098;9.998;2023-05-07T14:44:42;64.93;;;61.93;;
7485;SDS011;3784;54.098;9.998;2023-05-07T14:47:10;60.80;;;58.00;;
7485;SDS011;3784;54.098;9.998;2023-05-07T14:49:37;58.30;;;55.80;;
7485;SDS011;3784;54.098;9.998;2023-05-07T14:52:04;63.50;;;60.30;;